sensor_id;sensor_type;location;lat;lon;timestamp;pressure;altitude;pressure_sealevel;temperature;humidity
63708;BME280;67643;-34.198;22.084;2023-04-01T00:00:55;100431.97;;;18.34;44.46
63708;BME280;67643;-34.198;22.084;2023-04-01T00:03:25;100429.37;;;18.79;43.99
63708;BME280;67643;-34.198;22.084;2023-04-01T00:05:55;100436.87;;;18.10;44.15
63708;BME280;67643;-34.198;22.084;2023-04-01T00:08:25;100439.74;;;18.56;43.98
63708;BME280;67643;-34.198;22.084;2023-04-01T00:10:55;100432.78;;;18.91;43.28
63708;BME280;67643;-34.198;22.084;2023-04-01T00:13:25;100430.28;;;18.56;43.00
63708;BME280;67643;-34.198;22.084;2023-04-01T00:15:54;100429.72;;;18.77;42.73
63708;BME280;67643;-34.198;22.084;2023-04-01T00:18:23;100427.49;;;19.35;42.16
63708;BME280;67643;-34.198;22.084;2023-04-01T00:20:52;100429.74;;;18.54;43.24
63708;BME280;67643;-34.198;22.084;2023-04-01T00:23:21;100425.71;;;19.83;41.57
63708;BME280;67643;-34.198;22.084;2023-04-01T00:25:50;100417.95;;;19.85;41.32
63708;BME280;67643;-34.198;22.084;2023-04-01T00:28:19;100417.29;;;18.79;42.95
63708;BME280;67643;-34.198;22.084;2023-04-01T00:30:48;100419.77;;;18.80;43.31
63708;BME280;67643;-34.198;22.084;2023-04-01T00:33:16;100418.21;;;18.15;44.07
63708;BME280;67643;-34.198;22.084;2023-04-01T00:35:45;100418.12;;;18.10;44.51
63708;BME280;67643;-34.198;22.084;2023-04-01T00:38:14;100418.04;;;18.54;44.04
63708;BME280;67643;-34.198;22.084;2023-04-01T00:40:44;100414.14;;;19.45;42.15
63708;BME280;67643;-34.198;22.084;2023-04-01T00:43:15;100418.00;;;18.62;43.85
63708;BME280;67643;-34.198;22.084;2023-04-01T00:45:45;100417.11;;;18.99;42.50
63708;BME280;67643;-34.198;22.084;2023-04-01T00:48:16;100421.37;;;18.12;43.80
63708;BME280;67643;-34.198;22.084;2023-04-01T00:50:50;100418.69;;;17.87;44.30
63708;BME280;67643;-34.198;22.084;2023-04-01T00:53:20;100420.11;;;18.45;44.00
63708;BME280;67643;-34.198;22.084;2023-04-01T00:55:54;100417.94;;;18.29;43.05
63708;BME280;67643;-34.198;22.084;2023-04-01T00:58:27;100406.55;;;19.35;41.49
63708;BME280;67643;-34.198;22.084;2023-04-01T01:00:58;100398.62;;;19.10;41.81
63708;BME280;67643;-34.198;22.084;2023-04-01T01:03:28;100398.29;;;18.83;43.20
63708;BME280;67643;-34.198;22.084;2023-04-01T01:06:10;100393.08;;;19.12;42.51
63708;BME280;67643;-34.198;22.084;2023-04-01T01:08:55;100389.98;;;18.13;43.97
63708;BME280;67643;-34.198;22.084;2023-04-01T01:11:32;100385.84;;;18.02;44.56
63708;BME280;67643;-34.198;22.084;2023-04-01T01:14:09;100376.69;;;19.63;42.03
63708;BME280;67643;-34.198;22.084;2023-04-01T01:16:44;100375.70;;;18.56;43.57
63708;BME280;67643;-34.198;22.084;2023-04-01T01:19:33;100375.37;;;18.70;43.43
63708;BME280;67643;-34.198;22.084;2023-04-01T01:22:21;100378.33;;;18.19;44.26
63708;BME280;67643;-34.198;22.084;2023-04-01T01:25:10;100370.24;;;19.17;42.41
63708;BME280;67643;-34.198;22.084;2023-04-01T01:27:42;100367.58;;;18.62;43.46
63708;BME280;67643;-34.198;22.084;2023-04-01T01:30:32;100366.60;;;18.48;43.69
63708;BME280;67643;-34.198;22.084;2023-04-01T01:33:24;100365.79;;;18.51;43.32
63708;BME280;67643;-34.198;22.084;2023-04-01T01:35:55;100368.27;;;18.79;43.26
63708;BME280;67643;-34.198;22.084;2023-04-01T01:38:28;100366.57;;;18.97;42.63
63708;BME280;67643;-34.198;22.084;2023-04-01T01:41:00;100364.47;;;18.15;44.14
63708;BME280;67643;-34.198;22.084;2023-04-01T01:43:33;100362.44;;;19.48;42.15
63708;BME280;67643;-34.198;22.084;2023-04-01T01:46:07;100365.43;;;18.62;42.89
63708;BME280;67643;-34.198;22.084;2023-04-01T01:48:38;100367.89;;;19.60;41.23
63708;BME280;67643;-34.198;22.084;2023-04-01T01:51:08;100368.46;;;19.71;40.86
63708;BME280;67643;-34.198;22.084;2023-04-01T01:53:37;100370.92;;;19.09;41.93
63708;BME280;67643;-34.198;22.084;2023-04-01T01:56:06;100370.31;;;19.36;41.62
63708;BME280;67643;-34.198;22.084;2023-04-01T01:58:36;100370.86;;;18.95;42.61
63708;BME280;67643;-34.198;22.084;2023-04-01T04:10:06;100376.05;;;15.81;52.84
63708;BME280;67643;-34.198;22.084;2023-04-01T04:12:35;100370.14;;;17.17;48.15
63708;BME280;67643;-34.198;22.084;2023-04-01T04:15:04;100375.21;;;18.02;45.32
63708;BME280;67643;-34.198;22.084;2023-04-01T04:17:33;100371.39;;;17.61;44.89
63708;BME280;67643;-34.198;22.084;2023-04-01T04:20:01;100368.56;;;18.65;43.24
63708;BME280;67643;-34.198;22.084;2023-04-01T04:22:30;100367.73;;;18.78;42.54
63708;BME280;67643;-34.198;22.084;2023-04-01T04:24:59;100364.22;;;19.02;41.99
63708;BME280;67643;-34.198;22.084;2023-04-01T04:27:28;100365.76;;;18.79;42.36
63708;BME280;67643;-34.198;22.084;2023-04-01T04:29:57;100364.38;;;19.44;41.74
63708;BME280;67643;-34.198;22.084;2023-04-01T04:32:25;100362.69;;;19.55;41.58
63708;BME280;67643;-34.198;22.084;2023-04-01T04:34:54;100362.32;;;19.31;41.69
63708;BME280;67643;-34.198;22.084;2023-04-01T04:37:23;100362.71;;;19.37;41.90
63708;BME280;67643;-34.198;22.084;2023-04-01T04:39:56;100361.50;;;19.49;41.44
63708;BME280;67643;-34.198;22.084;2023-04-01T04:42:24;100359.91;;;19.51;41.72
63708;BME280;67643;-34.198;22.084;2023-04-01T04:44:53;100359.93;;;19.11;41.71
63708;BME280;67643;-34.198;22.084;2023-04-01T04:47:22;100361.47;;;19.04;42.07
63708;BME280;67643;-34.198;22.084;2023-04-01T04:49:50;100361.29;;;19.59;41.95
63708;BME280;67643;-34.198;22.084;2023-04-01T04:52:18;100359.88;;;19.06;41.90
63708;BME280;67643;-34.198;22.084;2023-04-01T04:54:47;100356.74;;;19.63;41.61
63708;BME280;67643;-34.198;22.084;2023-04-01T04:57:16;100355.41;;;19.35;41.22
63708;BME280;67643;-34.198;22.084;2023-04-01T04:59:44;100358.07;;;18.95;41.82
63708;BME280;67643;-34.198;22.084;2023-04-01T05:02:13;100360.45;;;19.12;42.00
63708;BME280;67643;-34.198;22.084;2023-04-01T05:04:41;100362.54;;;19.61;41.32
63708;BME280;67643;-34.198;22.084;2023-04-01T05:07:10;100363.81;;;19.69;41.20
63708;BME280;67643;-34.198;22.084;2023-04-01T05:09:38;100366.37;;;19.14;41.46
63708;BME280;67643;-34.198;22.084;2023-04-01T05:12:07;100368.83;;;19.33;41.68
63708;BME280;67643;-34.198;22.084;2023-04-01T05:14:36;100368.72;;;18.75;42.31
63708;BME280;67643;-34.198;22.084;2023-04-01T05:17:05;100370.41;;;18.74;42.59
63708;BME280;67643;-34.198;22.084;2023-04-01T05:19:36;100375.67;;;19.09;42.81
63708;BME280;67643;-34.198;22.084;2023-04-01T05:22:05;100379.44;;;19.57;42.38
63708;BME280;67643;-34.198;22.084;2023-04-01T05:24:34;100380.06;;;19.42;42.33
63708;BME280;67643;-34.198;22.084;2023-04-01T05:27:02;100381.47;;;19.17;42.75
63708;BME280;67643;-34.198;22.084;2023-04-01T05:29:31;100385.43;;;18.72;43.42
63708;BME280;67643;-34.198;22.084;2023-04-01T05:32:00;100388.51;;;19.07;42.93
63708;BME280;67643;-34.198;22.084;2023-04-01T05:34:29;100394.03;;;19.52;42.96
63708;BME280;67643;-34.198;22.084;2023-04-01T05:36:57;100396.04;;;19.14;43.11
63708;BME280;67643;-34.198;22.084;2023-04-01T05:39:26;100396.02;;;19.23;43.17
63708;BME280;67643;-34.198;22.084;2023-04-01T05:41:54;100395.76;;;19.67;42.89
63708;BME280;67643;-34.198;22.084;2023-04-01T05:44:23;100395.12;;;19.49;42.79
63708;BME280;67643;-34.198;22.084;2023-04-01T05:46:52;100394.93;;;19.47;42.62
63708;BME280;67643;-34.198;22.084;2023-04-01T05:49:20;100394.58;;;19.29;43.12
63708;BME280;67643;-34.198;22.084;2023-04-01T05:51:49;100394.57;;;19.24;43.62
63708;BME280;67643;-34.198;22.084;2023-04-01T05:54:17;100392.36;;;19.75;42.92
63708;BME280;67643;-34.198;22.084;2023-04-01T05:56:46;100390.18;;;19.29;43.60
63708;BME280;67643;-34.198;22.084;2023-04-01T05:59:15;100389.31;;;19.13;44.66
63708;BME280;67643;-34.198;22.084;2023-04-01T06:01:44;100390.02;;;19.70;43.48
63708;BME280;67643;-34.198;22.084;2023-04-01T06:04:16;100389.26;;;19.61;44.12
63708;BME280;67643;-34.198;22.084;2023-04-01T06:06:46;100391.96;;;20.07;43.49
63708;BME280;67643;-34.198;22.084;2023-04-01T06:09:16;100393.98;;;19.69;44.09
63708;BME280;67643;-34.198;22.084;2023-04-01T06:11:57;100398.21;;;19.83;44.32
63708;BME280;67643;-34.198;22.084;2023-04-01T06:14:36;100402.30;;;19.51;44.83
63708;BME280;67643;-34.198;22.084;2023-04-01T06:17:24;100405.64;;;19.49;45.29
63708;BME280;67643;-34.198;22.084;2023-04-01T06:20:00;100406.28;;;19.62;44.94
63708;BME280;67643;-34.198;22.084;2023-04-01T06:23:17;100406.20;;;19.20;46.21
63708;BME280;67643;-34.198;22.084;2023-04-01T06:25:54;100407.67;;;20.24;45.01
63708;BME280;67643;-34.198;22.084;2023-04-01T06:28:42;100407.50;;;20.16;45.01
63708;BME280;67643;-34.198;22.084;2023-04-01T06:31:25;100406.13;;;19.85;45.09
63708;BME280;67643;-34.198;22.084;2023-04-01T06:34:10;100405.93;;;20.45;44.55
63708;BME280;67643;-34.198;22.084;2023-04-01T06:36:55;100408.78;;;20.17;44.91
63708;BME280;67643;-34.198;22.084;2023-04-01T06:39:35;100402.11;;;20.54;44.51
63708;BME280;67643;-34.198;22.084;2023-04-01T06:42:20;100400.49;;;20.88;44.21
63708;BME280;67643;-34.198;22.084;2023-04-01T06:44:57;100395.40;;;20.85;43.85
63708;BME280;67643;-34.198;22.084;2023-04-01T06:47:41;100390.85;;;21.11;43.82
63708;BME280;67643;-34.198;22.084;2023-04-01T06:50:23;100390.56;;;21.03;43.48
63708;BME280;67643;-34.198;22.084;2023-04-01T06:52:58;100389.77;;;21.06;43.57
63708;BME280;67643;-34.198;22.084;2023-04-01T06:55:36;100387.12;;;21.25;43.05
63708;BME280;67643;-34.198;22.084;2023-04-01T06:58:13;100393.73;;;20.83;43.33
63708;BME280;67643;-34.198;22.084;2023-04-01T07:00:50;100397.01;;;21.26;43.24
63708;BME280;67643;-34.198;22.084;2023-04-01T07:03:26;100397.41;;;21.20;43.45
63708;BME280;67643;-34.198;22.084;2023-04-01T07:06:02;100401.89;;;21.33;43.12
63708;BME280;67643;-34.198;22.084;2023-04-01T07:08:34;100399.77;;;21.37;42.18
63708;BME280;67643;-34.198;22.084;2023-04-01T07:11:05;100404.43;;;20.97;42.36
63708;BME280;67643;-34.198;22.084;2023-04-01T07:13:36;100402.68;;;21.36;41.54
63708;BME280;67643;-34.198;22.084;2023-04-01T07:16:15;100405.54;;;21.67;41.40
63708;BME280;67643;-34.198;22.084;2023-04-01T07:18:48;100406.56;;;20.75;42.09
63708;BME280;67643;-34.198;22.084;2023-04-01T07:21:26;100403.98;;;21.34;41.21
63708;BME280;67643;-34.198;22.084;2023-04-01T07:24:01;100402.37;;;21.31;40.91
63708;BME280;67643;-34.198;22.084;2023-04-01T07:26:32;100403.47;;;21.22;40.57
63708;BME280;67643;-34.198;22.084;2023-04-01T07:29:00;100401.90;;;21.28;40.43
63708;BME280;67643;-34.198;22.084;2023-04-01T07:31:40;100400.39;;;21.17;40.64
63708;BME280;67643;-34.198;22.084;2023-04-01T07:34:13;100399.74;;;21.64;40.28
63708;BME280;67643;-34.198;22.084;2023-04-01T07:36:51;100401.70;;;21.39;40.63
63708;BME280;67643;-34.198;22.084;2023-04-01T07:39:32;100407.39;;;21.53;40.51
63708;BME280;67643;-34.198;22.084;2023-04-01T07:42:08;100406.53;;;21.29;40.26
63708;BME280;67643;-34.198;22.084;2023-04-01T07:44:47;100408.96;;;21.35;40.05
63708;BME280;67643;-34.198;22.084;2023-04-01T07:47:28;100408.04;;;21.38;40.33
63708;BME280;67643;-34.198;22.084;2023-04-01T07:50:13;100411.03;;;21.08;40.38
63708;BME280;67643;-34.198;22.084;2023-04-01T07:52:52;100414.85;;;21.12;40.59
63708;BME280;67643;-34.198;22.084;2023-04-01T07:55:26;100409.55;;;21.32;39.74
63708;BME280;67643;-34.198;22.084;2023-04-01T07:58:01;100407.33;;;21.18;39.26
63708;BME280;67643;-34.198;22.084;2023-04-01T08:00:39;100409.82;;;21.36;38.61
63708;BME280;67643;-34.198;22.084;2023-04-01T08:03:24;100409.42;;;21.40;38.20
63708;BME280;67643;-34.198;22.084;2023-04-01T08:06:00;100407.77;;;21.44;38.18
63708;BME280;67643;-34.198;22.084;2023-04-01T08:08:40;100408.96;;;21.39;38.01
63708;BME280;67643;-34.198;22.084;2023-04-01T08:11:25;100410.33;;;21.78;37.99
63708;BME280;67643;-34.198;22.084;2023-04-01T08:14:04;100415.30;;;21.52;38.02
63708;BME280;67643;-34.198;22.084;2023-04-01T08:16:45;100418.59;;;21.46;38.18
63708;BME280;67643;-34.198;22.084;2023-04-01T08:19:24;100418.60;;;21.51;38.30
63708;BME280;67643;-34.198;22.084;2023-04-01T08:22:01;100419.08;;;21.34;38.37
63708;BME280;67643;-34.198;22.084;2023-04-01T08:24:35;100420.95;;;21.42;38.40
63708;BME280;67643;-34.198;22.084;2023-04-01T08:27:11;100421.09;;;21.61;38.32
63708;BME280;67643;-34.198;22.084;2023-04-01T08:29:50;100419.69;;;21.07;38.61
63708;BME280;67643;-34.198;22.084;2023-04-01T08:32:25;100418.72;;;21.92;37.67
63708;BME280;67643;-34.198;22.084;2023-04-01T08:35:07;100416.81;;;21.53;37.34
63708;BME280;67643;-34.198;22.084;2023-04-01T08:37:40;100418.55;;;21.88;37.44
63708;BME280;67643;-34.198;22.084;2023-04-01T08:41:02;100419.50;;;21.62;37.45
63708;BME280;67643;-34.198;22.084;2023-04-01T08:44:03;100421.03;;;21.38;37.44
63708;BME280;67643;-34.198;22.084;2023-04-01T08:47:20;100418.14;;;21.58;37.10
63708;BME280;67643;-34.198;22.084;2023-04-01T08:50:15;100418.02;;;21.97;37.09
63708;BME280;67643;-34.198;22.084;2023-04-01T08:52:49;100418.68;;;21.72;37.22
63708;BME280;67643;-34.198;22.084;2023-04-01T08:55:38;100417.30;;;21.93;37.69
63708;BME280;67643;-34.198;22.084;2023-04-01T08:59:12;100416.80;;;21.90;37.88
63708;BME280;67643;-34.198;22.084;2023-04-01T09:04:23;100414.56;;;22.11;38.36
63708;BME280;67643;-34.198;22.084;2023-04-01T09:07:03;100411.70;;;22.10;37.79
63708;BME280;67643;-34.198;22.084;2023-04-01T09:10:29;100409.87;;;21.90;37.83
63708;BME280;67643;-34.198;22.084;2023-04-01T09:13:14;100407.73;;;21.97;37.93
63708;BME280;67643;-34.198;22.084;2023-04-01T09:16:01;100402.15;;;21.89;37.54
63708;BME280;67643;-34.198;22.084;2023-04-01T09:18:49;100400.38;;;22.36;37.56
63708;BME280;67643;-34.198;22.084;2023-04-01T09:21:32;100395.62;;;22.10;37.80
63708;BME280;67643;-34.198;22.084;2023-04-01T09:26:33;100394.71;;;22.73;37.89
63708;BME280;67643;-34.198;22.084;2023-04-01T09:29:16;100387.33;;;22.02;37.50
63708;BME280;67643;-34.198;22.084;2023-04-01T09:32:04;100385.00;;;22.07;37.49
63708;BME280;67643;-34.198;22.084;2023-04-01T09:34:52;100379.83;;;22.38;37.80
63708;BME280;67643;-34.198;22.084;2023-04-01T09:37:26;100376.21;;;22.69;37.41
63708;BME280;67643;-34.198;22.084;2023-04-01T09:40:16;100375.00;;;22.60;37.57
63708;BME280;67643;-34.198;22.084;2023-04-01T09:43:03;100367.72;;;22.22;38.12
63708;BME280;67643;-34.198;22.084;2023-04-01T09:45:42;100366.30;;;22.43;37.58
63708;BME280;67643;-34.198;22.084;2023-04-01T09:48:24;100360.68;;;21.96;37.97
63708;BME280;67643;-34.198;22.084;2023-04-01T09:51:05;100361.14;;;21.86;38.06
63708;BME280;67643;-34.198;22.084;2023-04-01T09:53:50;100361.23;;;22.15;38.00
63708;BME280;67643;-34.198;22.084;2023-04-01T09:57:20;100362.52;;;22.25;37.38
63708;BME280;67643;-34.198;22.084;2023-04-01T12:18:38;100233.97;;;21.59;44.69
63708;BME280;67643;-34.198;22.084;2023-04-01T12:21:20;100227.09;;;22.73;40.80
63708;BME280;67643;-34.198;22.084;2023-04-01T12:24:05;100227.36;;;22.74;39.94
63708;BME280;67643;-34.198;22.084;2023-04-01T12:26:48;100227.48;;;23.74;38.38
63708;BME280;67643;-34.198;22.084;2023-04-01T12:29:49;100223.80;;;23.69;38.12
63708;BME280;67643;-34.198;22.084;2023-04-01T12:32:28;100225.48;;;23.86;37.78
63708;BME280;67643;-34.198;22.084;2023-04-01T12:35:10;100223.80;;;23.82;37.51
63708;BME280;67643;-34.198;22.084;2023-04-01T12:37:49;100222.37;;;24.26;37.31
63708;BME280;67643;-34.198;22.084;2023-04-01T12:40:26;100224.19;;;24.46;36.75
63708;BME280;67643;-34.198;22.084;2023-04-01T12:43:12;100217.75;;;24.79;36.40
63708;BME280;67643;-34.198;22.084;2023-04-01T12:45:48;100216.35;;;24.65;36.56
63708;BME280;67643;-34.198;22.084;2023-04-01T12:48:33;100218.05;;;24.06;37.30
63708;BME280;67643;-34.198;22.084;2023-04-01T12:51:20;100219.97;;;24.29;37.04
63708;BME280;67643;-34.198;22.084;2023-04-01T12:55:37;100215.99;;;24.79;37.07
63708;BME280;67643;-34.198;22.084;2023-04-01T13:00:46;100217.25;;;24.79;37.21
63708;BME280;67643;-34.198;22.084;2023-04-01T13:03:32;100218.30;;;24.40;36.54
63708;BME280;67643;-34.198;22.084;2023-04-01T13:06:20;100216.29;;;24.86;36.50
63708;BME280;67643;-34.198;22.084;2023-04-01T13:08:55;100219.66;;;25.25;36.01
63708;BME280;67643;-34.198;22.084;2023-04-01T13:11:35;100220.71;;;24.00;37.82
63708;BME280;67643;-34.198;22.084;2023-04-01T13:14:29;100218.35;;;24.66;36.34
63708;BME280;67643;-34.198;22.084;2023-04-01T13:17:10;100218.35;;;25.04;35.91
63708;BME280;67643;-34.198;22.084;2023-04-01T13:19:49;100215.48;;;24.69;36.42
63708;BME280;67643;-34.198;22.084;2023-04-01T13:22:27;100214.90;;;24.06;37.37
63708;BME280;67643;-34.198;22.084;2023-04-01T13:25:03;100212.91;;;25.25;36.05
63708;BME280;67643;-34.198;22.084;2023-04-01T13:27:37;100218.18;;;24.81;36.40
63708;BME280;67643;-34.198;22.084;2023-04-01T13:30:23;100213.08;;;25.11;36.05
63708;BME280;67643;-34.198;22.084;2023-04-01T13:32:59;100216.91;;;24.59;36.79
63708;BME280;67643;-34.198;22.084;2023-04-01T13:35:36;100222.00;;;25.45;35.56
63708;BME280;67643;-34.198;22.084;2023-04-01T13:38:37;100224.04;;;25.76;35.17
63708;BME280;67643;-34.198;22.084;2023-04-01T13:41:23;100224.42;;;25.45;35.61
63708;BME280;67643;-34.198;22.084;2023-04-01T13:44:00;100228.42;;;25.59;35.44
63708;BME280;67643;-34.198;22.084;2023-04-01T13:46:52;100226.27;;;25.26;36.08
63708;BME280;67643;-34.198;22.084;2023-04-01T13:49:42;100221.48;;;24.86;36.71
63708;BME280;67643;-34.198;22.084;2023-04-01T13:52:30;100222.98;;;25.29;36.08
63708;BME280;67643;-34.198;22.084;2023-04-01T13:55:26;100227.91;;;25.36;35.39
63708;BME280;67643;-34.198;22.084;2023-04-01T13:58:13;100225.03;;;25.31;36.38
63708;BME280;67643;-34.198;22.084;2023-04-01T14:00:54;100226.60;;;24.67;37.02
63708;BME280;67643;-34.198;22.084;2023-04-01T14:03:32;100223.07;;;24.47;37.33
63708;BME280;67643;-34.198;22.084;2023-04-01T14:06:14;100224.92;;;25.02;36.97
63708;BME280;67643;-34.198;22.084;2023-04-01T14:09:03;100223.42;;;24.29;37.68
63708;BME280;67643;-34.198;22.084;2023-04-01T14:11:44;100220.99;;;24.19;37.86
63708;BME280;67643;-34.198;22.084;2023-04-01T14:14:21;100221.96;;;24.35;37.98
63708;BME280;67643;-34.198;22.084;2023-04-01T14:17:11;100220.46;;;24.31;37.70
63708;BME280;67643;-34.198;22.084;2023-04-01T14:19:52;100226.57;;;24.69;37.84
63708;BME280;67643;-34.198;22.084;2023-04-01T14:22:35;100222.14;;;24.26;37.87
63708;BME280;67643;-34.198;22.084;2023-04-01T14:25:29;100226.68;;;24.19;38.60
63708;BME280;67643;-34.198;22.084;2023-04-01T14:28:08;100224.94;;;23.82;39.21
63708;BME280;67643;-34.198;22.084;2023-04-01T14:30:48;100224.36;;;23.83;38.61
63708;BME280;67643;-34.198;22.084;2023-04-01T14:33:30;100226.69;;;24.15;38.77
63708;BME280;67643;-34.198;22.084;2023-04-01T14:36:15;100220.51;;;24.08;38.63
63708;BME280;67643;-34.198;22.084;2023-04-01T14:38:54;100216.87;;;23.82;39.09
63708;BME280;67643;-34.198;22.084;2023-04-01T14:41:39;100212.80;;;24.15;38.88
63708;BME280;67643;-34.198;22.084;2023-04-01T14:44:24;100213.49;;;23.83;39.30
63708;BME280;67643;-34.198;22.084;2023-04-01T14:47:28;100215.27;;;23.70;39.47
63708;BME280;67643;-34.198;22.084;2023-04-01T14:50:09;100213.93;;;24.25;38.70
63708;BME280;67643;-34.198;22.084;2023-04-01T14:52:43;100210.28;;;24.07;38.92
63708;BME280;67643;-34.198;22.084;2023-04-01T14:55:29;100209.42;;;24.31;38.92
63708;BME280;67643;-34.198;22.084;2023-04-01T14:58:11;100213.27;;;24.31;38.58
63708;BME280;67643;-34.198;22.084;2023-04-01T15:00:49;100212.83;;;24.16;38.77
63708;BME280;67643;-34.198;22.084;2023-04-01T15:03:23;100218.07;;;24.24;38.66
63708;BME280;67643;-34.198;22.084;2023-04-01T15:06:06;100223.76;;;24.41;38.43
63708;BME280;67643;-34.198;22.084;2023-04-01T15:08:38;100222.03;;;24.47;38.69
63708;BME280;67643;-34.198;22.084;2023-04-01T15:11:24;100222.23;;;24.52;38.66
63708;BME280;67643;-34.198;22.084;2023-04-01T15:14:22;100226.95;;;23.71;39.47
63708;BME280;67643;-34.198;22.084;2023-04-01T15:17:03;100222.49;;;23.88;39.24
63708;BME280;67643;-34.198;22.084;2023-04-01T15:19:42;100219.91;;;23.89;39.23
63708;BME280;67643;-34.198;22.084;2023-04-01T15:22:31;100219.74;;;24.24;38.74
63708;BME280;67643;-34.198;22.084;2023-04-01T15:25:19;100221.92;;;24.03;39.02
63708;BME280;67643;-34.198;22.084;2023-04-01T15:27:54;100222.41;;;24.12;39.31
63708;BME280;67643;-34.198;22.084;2023-04-01T15:30:33;100221.74;;;23.97;39.14
63708;BME280;67643;-34.198;22.084;2023-04-01T15:33:32;100226.50;;;24.24;38.82
63708;BME280;67643;-34.198;22.084;2023-04-01T15:36:18;100228.93;;;24.25;38.84
63708;BME280;67643;-34.198;22.084;2023-04-01T15:38:50;100224.11;;;24.41;38.65
63708;BME280;67643;-34.198;22.084;2023-04-01T15:41:23;100225.40;;;23.95;39.27
63708;BME280;67643;-34.198;22.084;2023-04-01T15:43:54;100225.13;;;23.75;39.61
63708;BME280;67643;-34.198;22.084;2023-04-01T15:46:36;100228.75;;;24.35;39.16
63708;BME280;67643;-34.198;22.084;2023-04-01T15:49:22;100234.38;;;24.39;39.14
63708;BME280;67643;-34.198;22.084;2023-04-01T15:52:10;100239.46;;;24.08;39.20
63708;BME280;67643;-34.198;22.084;2023-04-01T15:55:09;100242.86;;;24.23;39.34
63708;BME280;67643;-34.198;22.084;2023-04-01T15:57:48;100243.89;;;23.89;39.43
63708;BME280;67643;-34.198;22.084;2023-04-01T16:00:25;100242.40;;;23.86;39.49
63708;BME280;67643;-34.198;22.084;2023-04-01T16:03:22;100238.99;;;24.25;39.65
63708;BME280;67643;-34.198;22.084;2023-04-01T16:06:14;100236.88;;;23.81;39.57
63708;BME280;67643;-34.198;22.084;2023-04-01T16:08:59;100239.51;;;24.00;39.64
63708;BME280;67643;-34.198;22.084;2023-04-01T16:11:38;100236.39;;;24.14;39.50
63708;BME280;67643;-34.198;22.084;2023-04-01T16:14:18;100238.76;;;23.79;39.58
63708;BME280;67643;-34.198;22.084;2023-04-01T16:17:05;100235.95;;;23.86;39.53
63708;BME280;67643;-34.198;22.084;2023-04-01T16:19:49;100240.21;;;23.90;39.48
63708;BME280;67643;-34.198;22.084;2023-04-01T16:22:23;100243.15;;;23.52;39.67
63708;BME280;67643;-34.198;22.084;2023-04-01T16:25:00;100243.37;;;23.77;39.58
63708;BME280;67643;-34.198;22.084;2023-04-01T16:27:35;100246.07;;;23.97;39.63
63708;BME280;67643;-34.198;22.084;2023-04-01T16:30:33;100249.84;;;23.86;39.77
63708;BME280;67643;-34.198;22.084;2023-04-01T16:33:05;100248.81;;;23.83;39.76
63708;BME280;67643;-34.198;22.084;2023-04-01T16:35:45;100248.06;;;23.81;40.09
63708;BME280;67643;-34.198;22.084;2023-04-01T16:38:26;100249.99;;;23.54;40.12
63708;BME280;67643;-34.198;22.084;2023-04-01T16:41:11;100254.86;;;23.77;39.77
63708;BME280;67643;-34.198;22.084;2023-04-01T16:43:45;100259.08;;;23.37;39.93
63708;BME280;67643;-34.198;22.084;2023-04-01T16:46:34;100261.15;;;23.70;39.80
63708;BME280;67643;-34.198;22.084;2023-04-01T16:49:33;100260.71;;;23.89;39.80
63708;BME280;67643;-34.198;22.084;2023-04-01T16:52:15;100264.46;;;23.79;39.92
63708;BME280;67643;-34.198;22.084;2023-04-01T16:54:51;100267.79;;;23.94;39.65
63708;BME280;67643;-34.198;22.084;2023-04-01T16:57:25;100270.28;;;23.59;40.15
63708;BME280;67643;-34.198;22.084;2023-04-01T16:59:58;100268.62;;;23.72;39.95
63708;BME280;67643;-34.198;22.084;2023-04-01T17:02:33;100267.86;;;23.84;39.73
63708;BME280;67643;-34.198;22.084;2023-04-01T17:05:06;100270.77;;;23.42;39.96
63708;BME280;67643;-34.198;22.084;2023-04-01T17:07:45;100271.03;;;23.45;39.87
63708;BME280;67643;-34.198;22.084;2023-04-01T17:10:27;100271.17;;;23.69;39.85
63708;BME280;67643;-34.198;22.084;2023-04-01T17:13:15;100266.77;;;23.74;39.72
63708;BME280;67643;-34.198;22.084;2023-04-01T17:15:50;100264.95;;;23.72;39.72
63708;BME280;67643;-34.198;22.084;2023-04-01T17:18:26;100262.95;;;23.58;39.87
63708;BME280;67643;-34.198;22.084;2023-04-01T17:21:04;100263.57;;;23.28;40.24
63708;BME280;67643;-34.198;22.084;2023-04-01T17:23:35;100262.82;;;23.36;39.84
63708;BME280;67643;-34.198;22.084;2023-04-01T17:26:17;100263.64;;;23.38;40.10
63708;BME280;67643;-34.198;22.084;2023-04-01T17:28:52;100262.33;;;22.95;40.45
63708;BME280;67643;-34.198;22.084;2023-04-01T17:31:35;100264.55;;;23.24;40.39
63708;BME280;67643;-34.198;22.084;2023-04-01T17:34:24;100265.87;;;22.98;40.92
63708;BME280;67643;-34.198;22.084;2023-04-01T17:37:04;100265.62;;;22.65;41.03
63708;BME280;67643;-34.198;22.084;2023-04-01T17:39:47;100262.61;;;22.61;41.36
63708;BME280;67643;-34.198;22.084;2023-04-01T17:42:22;100267.11;;;22.43;41.77
63708;BME280;67643;-34.198;22.084;2023-04-01T17:45:03;100270.38;;;22.15;42.13
63708;BME280;67643;-34.198;22.084;2023-04-01T17:47:43;100273.18;;;22.26;42.03
63708;BME280;67643;-34.198;22.084;2023-04-01T17:50:21;100274.46;;;22.25;42.06
63708;BME280;67643;-34.198;22.084;2023-04-01T17:52:58;100276.16;;;22.27;42.12
63708;BME280;67643;-34.198;22.084;2023-04-01T17:55:44;100282.31;;;21.94;42.59
63708;BME280;67643;-34.198;22.084;2023-04-01T17:58:19;100282.91;;;22.04;42.49
63708;BME280;67643;-34.198;22.084;2023-04-01T18:00:58;100285.28;;;22.26;42.53
63708;BME280;67643;-34.198;22.084;2023-04-01T20:03:32;100281.97;;;15.22;64.10
63708;BME280;67643;-34.198;22.084;2023-04-01T20:06:10;100281.06;;;18.11;56.49